Eaton, Wisconsin
Current Conditions -  °F | °C
As of 2:54 AM on Wednesday 22 Oct 2014 (Local Time) from KMFI Reporting Station
Clear Clear  
Wind Chill: 26°   Ceiling: Unl
Heat Index: 32°   Visibility: 10mi
Dew Point: 30°   Wind: 6mph
Humidity: 92%   Direction: 90°E
Pressure: 30.29"   Gusts: NA
Location:  44.7413°N, 90.6524°W
Report Text: KMFI 220754Z AUTO 09005KT 10SM CLR 00/M01 A3029 RMK AO2 SLP267 I1000 T00001011
Loading
Personal Weather Stations






























Interactive Weather Map
Tropical Storm Tracking
New forecast layout! Learn more

10-Day Weather Forecast

Advertisements
Track Severe Weather on mobile